createdAt,value
2019-04-16T00:01:44.515Z,5.30
2019-04-16T00:04:30.436Z,5.30
2019-04-16T00:07:04.250Z,5.30
2019-04-16T00:09:47.332Z,5.20
2019-04-16T00:12:21.241Z,5.20
2019-04-16T00:14:52.544Z,5.20
2019-04-16T00:17:21.982Z,5.20
2019-04-16T00:19:51.527Z,5.10
2019-04-16T00:22:22.612Z,5.10
2019-04-16T00:24:52.045Z,5.10
2019-04-16T00:27:21.582Z,5.10
2019-04-16T00:29:51.263Z,5.00
2019-04-16T00:32:22.409Z,5.00
2019-04-16T00:34:51.755Z,5.00
2019-04-16T00:37:21.614Z,4.90
2019-04-16T00:39:55.547Z,4.90
2019-04-16T00:42:22.278Z,4.90
2019-04-16T00:44:51.795Z,4.90
2019-04-16T00:47:21.283Z,4.90
2019-04-16T00:49:50.689Z,4.80
2019-04-16T00:52:20.083Z,4.80
2019-04-16T00:54:49.495Z,4.70
2019-04-16T00:57:18.841Z,4.70
2019-04-16T00:59:49.330Z,4.70
2019-04-16T01:02:18.702Z,4.70
2019-04-16T01:04:48.158Z,4.60
2019-04-16T01:07:17.601Z,4.60
2019-04-16T01:09:47.007Z,4.60
2019-04-16T01:12:16.446Z,4.60
2019-04-16T01:14:45.901Z,4.60
2019-04-16T01:17:15.284Z,4.60
2019-04-16T01:19:44.671Z,4.50
2019-04-16T01:22:16.027Z,4.50
2019-04-16T01:24:45.099Z,4.50
2019-04-16T01:27:14.501Z,4.50
2019-04-16T01:29:43.931Z,4.40
2019-04-16T01:32:14.998Z,4.40
2019-04-16T01:34:48.831Z,4.40
2019-04-16T01:37:25.508Z,4.40
2019-04-16T01:40:02.873Z,4.40
2019-04-16T01:42:31.902Z,4.40
2019-04-16T01:45:01.218Z,4.40
2019-04-16T01:47:33.329Z,4.30
2019-04-16T01:50:01.638Z,4.30
2019-04-16T01:52:31.091Z,4.30
2019-04-16T01:55:00.598Z,4.30
2019-04-16T01:57:30.727Z,4.30
2019-04-16T02:00:00.889Z,4.30
2019-04-16T02:02:30.648Z,4.20
2019-04-16T02:05:00.096Z,4.20
2019-04-16T02:07:29.638Z,4.20
2019-04-16T02:09:59.095Z,4.20
2019-04-16T02:12:28.557Z,4.20
2019-04-16T02:14:59.005Z,4.20
2019-04-16T02:17:28.452Z,4.10
2019-04-16T02:19:57.905Z,4.10
2019-04-16T02:22:27.303Z,4.10
2019-04-16T02:24:56.752Z,4.10
2019-04-16T02:27:26.453Z,4.10
2019-04-16T02:29:58.602Z,4.10
2019-04-16T02:32:27.526Z,4.10
2019-04-16T02:34:56.942Z,4.10
2019-04-16T02:37:26.401Z,4.10
2019-04-16T02:39:55.767Z,4.10
2019-04-16T02:42:30.672Z,4.10
2019-04-16T02:44:56.220Z,4.10
2019-04-16T02:47:25.669Z,4.00
2019-04-16T02:49:56.794Z,4.00
2019-04-16T02:52:31.568Z,4.00
2019-04-16T02:55:08.128Z,4.00
2019-04-16T02:57:50.420Z,4.00
2019-04-16T03:00:27.502Z,4.00
2019-04-16T03:02:58.646Z,3.90
2019-04-16T03:05:32.479Z,3.90
2019-04-16T03:08:04.821Z,3.90
2019-04-16T03:10:44.679Z,3.80
2019-04-16T03:13:15.818Z,3.80
2019-04-16T03:15:47.038Z,3.80
2019-04-16T03:18:18.183Z,3.70
2019-04-16T03:20:47.641Z,3.70
2019-04-16T03:23:17.017Z,3.70
2019-04-16T03:25:47.555Z,3.60
2019-04-16T03:28:16.998Z,3.60
2019-04-16T03:30:46.532Z,3.60
2019-04-16T03:33:16.525Z,3.50
2019-04-16T03:35:46.130Z,3.40
2019-04-16T03:38:15.982Z,3.40
2019-04-16T03:40:45.346Z,3.30
2019-04-16T03:43:14.802Z,3.30
2019-04-16T03:45:44.256Z,3.30
2019-04-16T03:48:13.787Z,3.20
2019-04-16T03:50:43.242Z,3.20
2019-04-16T03:53:16.325Z,3.10
2019-04-16T03:55:43.687Z,3.10
2019-04-16T03:58:13.130Z,3.10
2019-04-16T04:00:44.082Z,3.10
2019-04-16T04:03:13.668Z,3.10
2019-04-16T04:05:44.730Z,3.00
2019-04-16T04:08:17.394Z,3.00
2019-04-16T04:10:45.179Z,3.00
2019-04-16T04:13:17.700Z,3.00
2019-04-16T04:15:45.779Z,3.00
2019-04-16T04:18:15.709Z,3.00
2019-04-16T04:20:49.646Z,3.00
2019-04-16T04:23:17.007Z,3.00
2019-04-16T04:25:47.386Z,3.00
2019-04-16T04:28:19.612Z,3.00
2019-04-16T04:30:48.994Z,3.00
2019-04-16T04:33:41.955Z,3.00
2019-04-16T04:36:10.394Z,3.00
2019-04-16T04:38:39.979Z,3.00
2019-04-16T04:41:23.452Z,3.00
2019-04-16T04:43:52.939Z,3.00
2019-04-16T04:46:22.468Z,3.10
2019-04-16T04:48:55.065Z,3.10
2019-04-16T04:51:22.990Z,3.20
2019-04-16T04:53:52.443Z,3.20
2019-04-16T04:56:21.899Z,3.30
2019-04-16T04:58:51.355Z,3.40
2019-04-16T05:01:20.807Z,3.40
2019-04-16T05:04:02.202Z,3.50
2019-04-16T05:06:36.511Z,3.60
2019-04-16T05:09:06.914Z,3.70
2019-04-16T05:11:36.676Z,3.80
2019-04-16T05:14:06.129Z,3.80
2019-04-16T05:16:35.662Z,3.90
2019-04-16T05:19:05.117Z,4.00
2019-04-16T05:21:34.544Z,4.10
2019-04-16T05:24:03.964Z,4.20
2019-04-16T05:26:33.522Z,4.20
2019-04-16T05:29:17.432Z,4.40
2019-04-16T05:31:44.487Z,4.40
2019-04-16T05:34:17.432Z,4.50
2019-04-16T05:36:47.762Z,4.60
2019-04-16T05:39:16.056Z,4.70
2019-04-16T05:41:45.797Z,4.80
2019-04-16T05:44:16.222Z,4.90
2019-04-16T05:46:46.842Z,5.00
2019-04-16T05:49:16.542Z,5.10
2019-04-16T05:51:46.072Z,5.20
2019-04-16T05:54:23.156Z,5.30
2019-04-16T05:56:55.494Z,5.30
2019-04-16T05:59:25.419Z,5.50
2019-04-16T06:02:02.477Z,5.60
2019-04-16T06:04:32.203Z,5.70
2019-04-16T06:07:04.819Z,5.80
2019-04-16T06:09:32.600Z,5.80
2019-04-16T06:12:01.983Z,6.00
2019-04-16T06:14:38.788Z,6.10
2019-04-16T06:17:31.781Z,6.10
2019-04-16T06:20:20.519Z,6.20
2019-04-16T06:22:50.303Z,6.40
2019-04-16T06:25:30.045Z,6.50
2019-04-16T06:28:10.237Z,6.60
2019-04-16T06:30:50.112Z,6.70
2019-04-16T06:33:25.212Z,6.70
2019-04-16T06:36:11.542Z,6.80
2019-04-16T06:38:51.950Z,6.90
2019-04-16T06:41:40.821Z,7.00
2019-04-16T06:44:03.949Z,7.10
2019-04-16T06:46:39.768Z,7.10
2019-04-16T06:49:19.179Z,7.20
2019-04-16T06:51:56.047Z,7.30
2019-04-16T06:54:45.456Z,7.40
2019-04-16T06:57:16.052Z,7.50
2019-04-16T06:59:53.455Z,7.60
2019-04-16T07:02:27.612Z,7.70
2019-04-16T07:05:01.201Z,7.80
2019-04-16T07:07:39.875Z,7.90
2019-04-16T07:10:09.895Z,8.00
2019-04-16T07:12:39.404Z,8.20
2019-04-16T07:15:09.054Z,8.20
2019-04-16T07:17:40.448Z,8.40
2019-04-16T07:20:13.614Z,8.50
2019-04-16T07:22:42.084Z,8.60
2019-04-16T07:25:11.627Z,8.70
2019-04-16T07:27:45.438Z,8.80
2019-04-16T07:30:39.261Z,8.90
2019-04-16T07:33:27.890Z,9.00
2019-04-16T07:36:15.346Z,9.10
2019-04-16T07:38:52.717Z,9.30
2019-04-16T07:41:29.391Z,9.40
2019-04-16T07:44:07.816Z,9.50
2019-04-16T07:46:52.347Z,9.60
2019-04-16T07:49:27.076Z,9.70
2019-04-16T07:51:58.284Z,9.80
2019-04-16T07:54:48.335Z,9.90
2019-04-16T07:57:17.720Z,10.00
2019-04-16T07:59:47.103Z,10.20
2019-04-16T08:02:21.152Z,10.20
2019-04-16T08:04:48.948Z,10.30
2019-04-16T08:07:20.454Z,10.40
2019-04-16T08:09:50.199Z,10.50
2019-04-16T08:12:30.437Z,10.60
2019-04-16T08:15:13.876Z,10.70
2019-04-16T08:17:42.434Z,10.80
2019-04-16T08:20:30.448Z,10.80
2019-04-16T08:23:38.771Z,10.80
2019-04-16T08:26:18.998Z,10.90
2019-04-16T08:29:08.210Z,11.00
2019-04-16T08:31:44.484Z,11.00
2019-04-16T08:34:23.871Z,11.10
2019-04-16T08:36:55.614Z,11.10
2019-04-16T08:39:31.008Z,11.20
2019-04-16T08:42:01.866Z,11.30
2019-04-16T08:44:35.295Z,11.40
2019-04-16T08:47:04.210Z,11.40
2019-04-16T08:49:34.231Z,11.50
2019-04-16T08:52:09.878Z,11.60
2019-04-16T08:54:38.081Z,11.60
2019-04-16T08:57:08.413Z,11.70
2019-04-16T08:59:39.556Z,11.80
2019-04-16T09:02:09.677Z,11.90
2019-04-16T09:04:43.011Z,11.90
2019-04-16T09:07:19.617Z,12.00
2019-04-16T09:09:56.960Z,12.10
2019-04-16T09:12:27.300Z,12.10
2019-04-16T09:14:58.908Z,12.20
2019-04-16T09:17:30.561Z,12.30
2019-04-16T09:20:05.656Z,12.30
2019-04-16T09:22:48.231Z,12.40
2019-04-16T09:25:15.603Z,12.40
2019-04-16T09:27:47.673Z,12.50
2019-04-16T09:30:38.828Z,12.50
2019-04-16T09:33:20.281Z,12.60
2019-04-16T09:35:52.035Z,12.60
2019-04-16T09:38:28.587Z,12.70
2019-04-16T09:41:09.278Z,12.70
2019-04-16T09:43:43.790Z,12.80
2019-04-16T09:46:21.070Z,12.80
2019-04-16T09:48:44.656Z,12.90
2019-04-16T09:51:19.032Z,12.90
2019-04-16T09:53:45.095Z,12.90
2019-04-16T09:56:31.388Z,13.00
2019-04-16T09:59:06.831Z,13.00
2019-04-16T10:01:51.559Z,13.10
2019-04-16T10:04:21.923Z,13.20
2019-04-16T10:06:52.885Z,13.30
2019-04-16T10:09:23.415Z,13.40
2019-04-16T10:11:53.343Z,13.40
2019-04-16T10:14:22.692Z,13.40
2019-04-16T10:16:54.286Z,13.50
2019-04-16T10:19:24.834Z,13.50
2019-04-16T10:21:57.078Z,13.60
2019-04-16T10:24:34.194Z,13.60
2019-04-16T10:27:05.226Z,13.60
2019-04-16T10:29:35.016Z,13.60
2019-04-16T10:32:04.551Z,13.60
2019-04-16T10:34:36.333Z,13.60
2019-04-16T10:37:07.404Z,13.70
2019-04-16T10:39:39.642Z,13.70
2019-04-16T10:42:13.357Z,13.70
2019-04-16T10:45:02.092Z,13.80
2019-04-16T10:48:09.275Z,13.90
2019-04-16T10:50:40.428Z,14.00
2019-04-16T10:53:18.675Z,13.90
2019-04-16T10:55:50.852Z,14.00
2019-04-16T10:58:40.788Z,14.00
2019-04-16T11:01:15.535Z,14.10
2019-04-16T11:03:46.654Z,14.10
2019-04-16T11:06:23.992Z,14.20
2019-04-16T11:08:54.747Z,14.20
2019-04-16T11:11:24.525Z,14.30
2019-04-16T11:13:59.992Z,14.40
2019-04-16T11:16:26.396Z,14.50
2019-04-16T11:18:58.334Z,14.60
2019-04-16T11:21:28.403Z,14.70
2019-04-16T11:23:59.173Z,14.70
2019-04-16T11:26:29.331Z,14.70
2019-04-16T11:28:59.536Z,14.80
2019-04-16T11:31:30.073Z,14.80
2019-04-16T11:34:01.022Z,14.90
2019-04-16T11:36:32.078Z,14.90
2019-04-16T11:39:02.558Z,14.90
2019-04-16T11:41:34.123Z,15.00
2019-04-16T11:44:15.247Z,15.00
2019-04-16T11:46:35.283Z,15.00
2019-04-16T11:49:10.313Z,15.10
2019-04-16T11:51:40.910Z,15.10
2019-04-16T11:54:12.324Z,15.10
2019-04-16T11:56:45.850Z,15.10
2019-04-16T11:59:16.798Z,15.20
2019-04-16T12:01:54.314Z,15.30
2019-04-16T12:04:43.719Z,15.40
2019-04-16T12:07:27.129Z,15.50
2019-04-16T12:10:15.348Z,15.60
2019-04-16T12:13:03.955Z,15.70
2019-04-16T12:15:51.227Z,15.80
2019-04-16T12:18:25.045Z,15.90
2019-04-16T12:20:59.245Z,16.00
2019-04-16T12:23:49.038Z,16.20
2019-04-16T12:26:20.210Z,16.30
2019-04-16T12:28:51.751Z,16.40
2019-04-16T12:31:27.994Z,16.60
2019-04-16T12:34:15.909Z,16.70
2019-04-16T12:36:51.156Z,16.80
2019-04-16T12:39:22.283Z,16.90
2019-04-16T12:42:00.194Z,17.10
2019-04-16T12:44:44.531Z,17.20
2019-04-16T12:47:22.186Z,17.40
2019-04-16T12:53:06.981Z,17.90
2019-04-16T12:55:39.924Z,18.20
2019-04-16T12:58:27.335Z,18.40
2019-04-16T13:01:08.283Z,18.60
2019-04-16T13:03:40.773Z,18.80
2019-04-16T13:06:15.999Z,18.90
2019-04-16T13:09:04.795Z,19.10
2019-04-16T13:11:37.123Z,19.20
2019-04-16T13:14:09.838Z,19.30
2019-04-16T13:16:41.477Z,19.50
2019-04-16T13:19:12.581Z,19.70
2019-04-16T13:21:45.057Z,19.90
2019-04-16T13:24:19.218Z,20.00
2019-04-16T13:26:56.783Z,20.10
2019-04-16T13:29:29.567Z,20.10
2019-04-16T13:32:01.887Z,20.20
2019-04-16T13:34:31.988Z,20.20
2019-04-16T13:37:02.820Z,20.20
2019-04-16T13:39:34.261Z,20.20
2019-04-16T13:42:04.198Z,20.30
2019-04-16T13:44:40.689Z,20.30
2019-04-16T13:47:09.717Z,20.30
2019-04-16T13:49:44.950Z,20.30
2019-04-16T13:52:17.122Z,20.30
2019-04-16T13:55:08.248Z,20.30
2019-04-16T13:57:38.510Z,20.20
2019-04-16T14:00:10.418Z,20.20
2019-04-16T14:02:44.579Z,20.20
2019-04-16T14:05:14.210Z,20.20
2019-04-16T14:07:44.178Z,20.10
2019-04-16T14:10:15.716Z,20.10
2019-04-16T14:12:45.558Z,20.00
2019-04-16T14:15:30.645Z,19.90
2019-04-16T14:17:53.090Z,19.90
2019-04-16T14:20:17.751Z,19.80
2019-04-16T14:22:53.278Z,19.70
2019-04-16T14:25:21.620Z,19.60
2019-04-16T14:27:55.042Z,19.50
2019-04-16T14:30:24.433Z,19.40
2019-04-16T14:32:54.953Z,19.30
2019-04-16T14:35:33.487Z,19.20
2019-04-16T14:37:59.089Z,19.10
2019-04-16T14:40:32.194Z,19.00
2019-04-16T14:43:02.484Z,18.90
2019-04-16T14:45:53.419Z,18.80
2019-04-16T14:48:10.986Z,18.60
2019-04-16T14:50:41.783Z,18.40
2019-04-16T14:53:11.441Z,18.20
2019-04-16T14:55:59.781Z,18.00
2019-04-16T14:58:22.435Z,17.80
2019-04-16T15:00:58.086Z,17.60
2019-04-16T15:03:45.933Z,17.40
2019-04-16T15:06:20.334Z,17.20
2019-04-16T15:09:07.833Z,17.10
2019-04-16T15:11:58.329Z,16.90
2019-04-16T15:14:30.869Z,16.70
2019-04-16T15:17:04.898Z,16.50
2019-04-16T15:19:37.061Z,16.40
2019-04-16T15:22:26.425Z,16.20
2019-04-16T15:25:06.670Z,16.10
2019-04-16T15:27:49.401Z,16.00
2019-04-16T15:30:19.640Z,15.90
2019-04-16T15:33:07.291Z,15.90
2019-04-16T15:35:43.720Z,15.80
2019-04-16T15:38:30.847Z,15.70
2019-04-16T15:41:13.219Z,15.70
2019-04-16T15:44:02.613Z,15.60
2019-04-16T15:46:52.065Z,15.50
2019-04-16T15:49:41.609Z,15.40
2019-04-16T15:52:28.670Z,15.40
2019-04-16T15:55:16.351Z,15.30
2019-04-16T15:57:47.513Z,15.30
2019-04-16T16:00:35.380Z,15.30
2019-04-16T16:03:22.690Z,15.30
2019-04-16T16:06:10.391Z,15.20
2019-04-16T16:08:47.686Z,15.20
2019-04-16T16:11:23.723Z,15.20
2019-04-16T16:14:05.349Z,15.20
2019-04-16T16:16:42.010Z,15.20
2019-04-16T16:19:10.917Z,15.10
2019-04-16T16:21:38.232Z,15.10
2019-04-16T16:24:08.429Z,15.10
2019-04-16T16:26:38.010Z,15.00
2019-04-16T16:29:07.461Z,14.90
2019-04-16T16:31:36.951Z,14.90
2019-04-16T16:34:08.910Z,14.80
2019-04-16T16:36:40.490Z,14.80
2019-04-16T16:39:08.610Z,14.70
2019-04-16T16:41:39.669Z,14.70
2019-04-16T16:44:09.086Z,14.60
2019-04-16T16:46:56.099Z,14.50
2019-04-16T16:49:13.784Z,14.50
2019-04-16T16:51:46.029Z,14.40
2019-04-16T16:54:21.799Z,14.40
2019-04-16T16:57:03.580Z,14.30
2019-04-16T16:59:37.291Z,14.30
2019-04-16T17:02:14.132Z,14.20
2019-04-16T17:04:47.955Z,14.20
2019-04-16T17:07:18.094Z,14.10
2019-04-16T17:09:48.773Z,14.00
2019-04-16T17:12:18.445Z,13.90
2019-04-16T17:14:48.602Z,13.80
2019-04-16T17:17:19.432Z,13.80
2019-04-16T17:19:50.897Z,13.60
2019-04-16T17:22:22.091Z,13.50
2019-04-16T17:28:06.554Z,13.30
2019-04-16T17:30:37.871Z,13.10
2019-04-16T17:33:08.393Z,12.90
2019-04-16T17:35:39.650Z,12.80
2019-04-16T17:38:12.117Z,12.70
2019-04-16T17:40:44.581Z,12.60
2019-04-16T17:43:17.066Z,12.50
2019-04-16T17:46:01.105Z,12.50
2019-04-16T17:48:33.400Z,12.30
2019-04-16T17:51:07.706Z,12.20
2019-04-16T17:53:49.115Z,12.10
2019-04-16T17:56:36.299Z,12.00
2019-04-16T17:59:13.353Z,11.80
2019-04-16T18:02:01.209Z,11.70
2019-04-16T18:04:39.209Z,11.60
2019-04-16T18:07:15.358Z,11.50
2019-04-16T18:09:46.436Z,11.40
2019-04-16T18:12:26.852Z,11.30
2019-04-16T18:14:58.913Z,11.20
2019-04-16T18:17:46.025Z,11.10
2019-04-16T18:20:05.274Z,11.10
2019-04-16T18:22:45.010Z,11.00
2019-04-16T18:25:29.626Z,10.90
2019-04-16T18:28:08.396Z,10.80
2019-04-16T18:30:43.098Z,10.80
2019-04-16T18:33:20.702Z,10.70
2019-04-16T18:36:02.487Z,10.60
2019-04-16T18:38:50.728Z,10.50
2019-04-16T18:41:27.570Z,10.50
2019-04-16T18:44:13.531Z,10.40
2019-04-16T18:46:50.758Z,10.40
2019-04-16T18:49:25.658Z,10.30
2019-04-16T18:51:55.863Z,10.30
2019-04-16T18:54:25.388Z,10.20
2019-04-16T18:56:54.837Z,10.20
2019-04-16T18:59:24.346Z,10.10
2019-04-16T19:01:55.407Z,10.10
2019-04-16T19:04:26.073Z,10.00
2019-04-16T19:06:56.846Z,10.00
2019-04-16T19:09:27.325Z,9.90
2019-04-16T19:11:58.521Z,9.90
2019-04-16T19:14:28.063Z,9.90
2019-04-16T19:16:59.182Z,9.80
2019-04-16T19:19:29.081Z,9.80
2019-04-16T19:21:59.848Z,9.70
2019-04-16T19:24:29.457Z,9.70
2019-04-16T19:26:58.872Z,9.60
2019-04-16T19:29:28.917Z,9.60
2019-04-16T19:32:00.311Z,9.50
2019-04-16T19:34:30.007Z,9.50
2019-04-16T19:37:00.999Z,9.40
2019-04-16T19:39:33.815Z,9.40
2019-04-16T19:42:05.501Z,9.40
2019-04-16T19:44:39.729Z,9.30
2019-04-16T19:47:08.477Z,9.30
2019-04-16T19:49:40.226Z,9.20
2019-04-16T19:52:10.866Z,9.20
2019-04-16T19:54:40.549Z,9.10
2019-04-16T19:57:10.744Z,9.10
2019-04-16T19:59:46.365Z,9.00
2019-04-16T20:02:14.537Z,9.00
2019-04-16T20:04:45.080Z,8.90
2019-04-16T20:07:16.493Z,8.90
2019-04-16T20:09:48.194Z,8.90
2019-04-16T20:12:18.904Z,8.80
2019-04-16T20:14:48.305Z,8.70
2019-04-16T20:17:18.031Z,8.70
2019-04-16T20:20:00.270Z,8.60
2019-04-16T20:22:30.156Z,8.60
2019-04-16T20:25:01.242Z,8.60
2019-04-16T20:27:30.834Z,8.50
2019-04-16T20:30:00.252Z,8.50
2019-04-16T20:32:30.990Z,8.50
2019-04-16T20:35:01.319Z,8.40
2019-04-16T20:37:30.910Z,8.40
2019-04-16T20:40:00.284Z,8.30
2019-04-16T20:42:29.691Z,8.30
2019-04-16T20:44:59.067Z,8.30
2019-04-16T20:47:28.492Z,8.30
2019-04-16T20:49:58.033Z,8.20
2019-04-16T20:52:27.362Z,8.20
2019-04-16T20:54:56.895Z,8.10
2019-04-16T20:57:26.490Z,8.00
2019-04-16T20:59:56.912Z,7.90
2019-04-16T21:02:27.927Z,7.90
2019-04-16T21:05:22.105Z,7.90
2019-04-16T21:07:43.803Z,7.80
2019-04-16T21:10:12.042Z,7.80
2019-04-16T21:12:45.071Z,7.70
2019-04-16T21:15:12.393Z,7.80
2019-04-16T21:17:41.838Z,7.80
2019-04-16T21:20:11.200Z,7.90
2019-04-16T21:22:40.579Z,8.00
2019-04-16T21:25:13.190Z,8.00
2019-04-16T21:27:42.683Z,8.10
2019-04-16T21:30:13.242Z,8.10
2019-04-16T21:32:48.735Z,8.20
2019-04-16T21:35:19.968Z,8.20
2019-04-16T21:38:09.219Z,8.20
2019-04-16T21:40:38.599Z,8.20
2019-04-16T21:43:08.856Z,8.20
2019-04-16T21:45:38.367Z,8.20
2019-04-16T21:48:07.829Z,8.10
2019-04-16T21:50:37.275Z,8.10
2019-04-16T21:53:06.653Z,8.00
2019-04-16T21:55:36.209Z,7.90
2019-04-16T21:58:05.940Z,7.90
2019-04-16T22:00:39.666Z,7.80
2019-04-16T22:03:12.320Z,7.70
2019-04-16T22:05:41.775Z,7.70
2019-04-16T22:08:11.204Z,7.60
2019-04-16T22:10:40.591Z,7.60
2019-04-16T22:13:10.937Z,7.60
2019-04-16T22:15:40.373Z,7.50
2019-04-16T22:18:10.077Z,7.40
2019-04-16T22:20:39.505Z,7.40
2019-04-16T22:23:09.137Z,7.30
2019-04-16T22:25:38.525Z,7.30
2019-04-16T22:28:11.385Z,7.20
2019-04-16T22:30:38.909Z,7.20
2019-04-16T22:33:09.359Z,7.10
2019-04-16T22:35:38.720Z,7.10
2019-04-16T22:38:13.517Z,7.10
2019-04-16T22:40:51.684Z,7.00
2019-04-16T22:43:21.938Z,7.00
2019-04-16T22:45:58.955Z,7.00
2019-04-16T22:48:28.337Z,6.90
2019-04-16T22:50:57.718Z,6.90
2019-04-16T22:53:27.076Z,6.80
2019-04-16T22:55:57.680Z,6.80
2019-04-16T22:58:29.045Z,6.80
2019-04-16T23:01:00.066Z,6.80
2019-04-16T23:03:29.464Z,6.80
2019-04-16T23:06:00.893Z,6.70
2019-04-16T23:08:29.888Z,6.70
2019-04-16T23:10:59.267Z,6.70
2019-04-16T23:13:32.239Z,6.70
2019-04-16T23:15:59.732Z,6.70
2019-04-16T23:18:29.092Z,6.70
2019-04-16T23:20:58.472Z,6.70
2019-04-16T23:23:27.855Z,6.70
2019-04-16T23:25:59.520Z,6.60
2019-04-16T23:28:28.215Z,6.60
2019-04-16T23:30:57.598Z,6.60
2019-04-16T23:33:27.065Z,6.60
2019-04-16T23:35:58.549Z,6.50
2019-04-16T23:38:31.105Z,6.50
2019-04-16T23:40:58.960Z,6.50
2019-04-16T23:43:44.733Z,6.50
2019-04-16T23:46:27.853Z,6.50
2019-04-16T23:49:05.555Z,6.50
2019-04-16T23:51:45.725Z,6.60
2019-04-16T23:54:19.468Z,6.60
2019-04-16T23:56:53.902Z,6.60
2019-04-16T23:59:32.663Z,6.60
